Time;durP1;ratioP1;P1;durP2;ratioP2;P2;SDS_P1;SDS_P2;PMS_P1;PMS_P2;Temp;Humidity;BMP_temperature;BMP_pressure;BME280_temperature;BME280_humidity;BME280_pressure;Samples;Min_cycle;Max_cycle;Signal;HPM_P1;HPM_P2
2023/10/29 00:02:24;;;;;;;;;;;;;;;;;;112403;210;39505;-40
2023/10/29 00:05:01;;;;;;;;;;;;;;;;;;112418;210;43579;-39
2023/10/29 00:07:36;;;;;;;;;;;;;;;;;;112415;210;48010;-40
2023/10/29 00:10:14;;;;;;;;;;;;;;;;;;112556;210;38623;-40
2023/10/29 00:12:47;;;;;;;;;;;;;;;;;;112447;210;39738;-39
2023/10/29 00:15:25;;;;;;;;;;;;;;;;;;112383;210;43303;-39
2023/10/29 00:17:59;;;;;;;;;;;;;;;;;;112411;210;41811;-39
2023/10/29 00:20:36;;;;;;;;;;;;;;;;;;112419;210;38625;-39
2023/10/29 00:23:09;;;;;;;;;;;;;;;;;;111759;210;895359;-39
2023/10/29 00:25:43;;;;;;;;;;;;;;;;;;112428;210;42572;-39
2023/10/29 00:28:17;;;;;;;;;;;;;;;;;;112424;210;41786;-40
2023/10/29 00:30:52;;;;;;;;;;;;;;;;;;112399;210;38999;-39
2023/10/29 00:33:25;;;;;;;;;;;;;;;;;;111758;210;893966;-39
2023/10/29 00:36:06;;;;;;;;;;;;;;;;;;112413;210;42803;-40
2023/10/29 00:38:40;;;;;;;;;;;;;;;;;;112500;210;41719;-39
2023/10/29 00:41:16;;;;;;;;;;;;;;;;;;112484;210;38752;-39
2023/10/29 00:43:52;;;;;;;;;;;;;;;;;;112473;210;39785;-39
2023/10/29 00:46:25;;;;;;;;;;;;;;;;;;112406;210;42951;-39
2023/10/29 00:49:03;;;;;;;;;;;;;;;;;;112473;210;41709;-39
2023/10/29 00:51:38;;;;;;;;;;;;;;;;;;112432;210;38678;-39
2023/10/29 00:54:16;;;;;;;;;;;;;;;;;;112486;210;39684;-38
2023/10/29 00:56:53;;;;;;;;;;;;;;;;;;112450;210;42790;-39
2023/10/29 00:59:32;;;;;;;;;;;;;;;;;;112401;210;42163;-39
2023/10/29 01:02:06;;;;;;;;;;;;;;;;;;112472;210;40304;-39
2023/10/29 01:04:45;;;;;;;;;;;;;;;;;;112421;210;39930;-39
2023/10/29 01:07:23;;;;;;;;;;;;;;;;;;112391;210;43005;-39
2023/10/29 01:09:57;;;;;;;;;;;;;;;;;;112449;210;41494;-39
2023/10/29 01:12:30;;;;;;;;;;;;;;;;;;112369;210;175677;-39
2023/10/29 01:15:09;;;;;;;;;;;;;;;;;;112480;210;39599;-39
2023/10/29 01:17:43;;;;;;;;;;;;;;;;;;112417;210;42834;-39
2023/10/29 01:20:15;;;;;;;;;;;;;;;;;;112464;210;41633;-39
2023/10/29 01:22:53;;;;;;;;;;;;;;;;;;112413;210;38954;-40
2023/10/29 01:25:29;;;;;;;;;;;;;;;;;;112466;210;39890;-39
2023/10/29 01:28:04;;;;;;;;;;;;;;;;;;112398;210;43163;-40
2023/10/29 01:30:40;;;;;;;;;;;;;;;;;;112469;210;41643;-39
2023/10/29 01:33:17;;;;;;;;;;;;;;;;;;112426;210;38926;-39
2023/10/29 01:35:51;;;;;;;;;;;;;;;;;;112446;210;39782;-39
2023/10/29 01:38:26;;;;;;;;;;;;;;;;;;112437;210;43009;-36
2023/10/29 01:41:03;;;;;;;;;;;;;;;;;;112426;211;41661;-36
2023/10/29 01:43:36;;;;;;;;;;;;;;;;;;112447;211;38698;-36
2023/10/29 01:46:08;;;;;;;;;;;;;;;;;;112372;211;39847;-36
2023/10/29 01:48:44;;;;;;;;;;;;;;;;;;112442;211;42821;-36
2023/10/29 01:51:19;;;;;;;;;;;;;;;;;;112452;211;41671;-36
2023/10/29 01:53:52;;;;;;;;;;;;;;;;;;112463;211;38774;-36
2023/10/29 01:56:26;;;;;;;;;;;;;;;;;;112488;211;40854;-37
2023/10/29 01:59:01;;;;;;;;;;;;;;;;;;112437;211;42606;-37
2023/10/29 02:01:35;;;;;;;;;;;;;;;;;;112430;211;43235;-37
2023/10/29 02:04:09;;;;;;;;;;;;;;;;;;112387;211;38921;-37
2023/10/29 02:06:46;;;;;;;;;;;;;;;;;;112451;211;39425;-37
2023/10/29 02:09:24;;;;;;;;;;;;;;;;;;112370;211;42860;-36
2023/10/29 02:11:58;;;;;;;;;;;;;;;;;;112428;211;41871;-37
2023/10/29 02:14:34;;;;;;;;;;;;;;;;;;112444;211;38752;-37
2023/10/29 02:17:09;;;;;;;;;;;;;;;;;;112365;211;39382;-37
2023/10/29 02:19:46;;;;;;;;;;;;;;;;;;112350;211;44106;-37
2023/10/29 02:22:21;;;;;;;;;;;;;;;;;;112328;211;175730;-36
2023/10/29 02:25:01;;;;;;;;;;;;;;;;;;112424;211;39978;-37
2023/10/29 02:27:35;;;;;;;;;;;;;;;;;;112469;211;41097;-36
2023/10/29 02:30:13;;;;;;;;;;;;;;;;;;112376;211;42833;-37
2023/10/29 02:32:50;;;;;;;;;;;;;;;;;;112396;211;41425;-36
2023/10/29 02:35:23;;;;;;;;;;;;;;;;;;112405;211;38912;-37
2023/10/29 02:37:56;;;;;;;;;;;;;;;;;;112443;211;39687;-36
2023/10/29 02:40:30;;;;;;;;;;;;;;;;;;112412;210;48574;-36
2023/10/29 02:43:04;;;;;;;;;;;;;;;;;;112433;210;43870;-37
2023/10/29 02:45:44;;;;;;;;;;;;;;;;;;112415;210;39153;-37
2023/10/29 02:48:17;;;;;;;;;;;;;;;;;;112433;210;39525;-36
2023/10/29 02:50:54;;;;;;;;;;;;;;;;;;112429;210;43079;-36
2023/10/29 02:53:29;;;;;;;;;;;;;;;;;;112281;210;41755;-36
2023/10/29 02:56:01;;;;;;;;;;;;;;;;;;112107;210;42026;-37
2023/10/29 02:58:36;;;;;;;;;;;;;;;;;;112425;210;39581;-37
2023/10/29 03:01:15;;;;;;;;;;;;;;;;;;112415;210;50266;-36
2023/10/29 03:03:52;;;;;;;;;;;;;;;;;;112440;210;41685;-37
2023/10/29 03:06:31;;;;;;;;;;;;;;;;;;112413;210;38889;-36
2023/10/29 03:09:05;;;;;;;;;;;;;;;;;;112411;210;40952;-37
2023/10/29 03:11:38;;;;;;;;;;;;;;;;;;112467;210;42985;-37
2023/10/29 03:14:13;;;;;;;;;;;;;;;;;;112419;210;41849;-36
2023/10/29 03:16:47;;;;;;;;;;;;;;;;;;112573;210;38704;-36
2023/10/29 03:19:24;;;;;;;;;;;;;;;;;;112505;210;40870;-37
2023/10/29 03:22:01;;;;;;;;;;;;;;;;;;112601;210;42818;-37
2023/10/29 03:24:37;;;;;;;;;;;;;;;;;;112559;210;41645;-36
2023/10/29 03:27:14;;;;;;;;;;;;;;;;;;112541;210;38775;-37
2023/10/29 03:29:51;;;;;;;;;;;;;;;;;;112519;210;39847;-36
2023/10/29 03:32:30;;;;;;;;;;;;;;;;;;112537;210;42984;-36
2023/10/29 03:35:09;;;;;;;;;;;;;;;;;;111917;210;892633;-36
2023/10/29 03:37:45;;;;;;;;;;;;;;;;;;112534;210;39149;-37
2023/10/29 03:40:19;;;;;;;;;;;;;;;;;;112493;210;39809;-36
2023/10/29 03:42:55;;;;;;;;;;;;;;;;;;112502;210;43016;-36
2023/10/29 03:45:29;;;;;;;;;;;;;;;;;;112483;210;42788;-36
2023/10/29 03:48:06;;;;;;;;;;;;;;;;;;112475;210;38697;-37
2023/10/29 03:50:44;;;;;;;;;;;;;;;;;;111767;210;895646;-39
2023/10/29 03:53:17;;;;;;;;;;;;;;;;;;112548;210;42844;-39
2023/10/29 03:55:53;;;;;;;;;;;;;;;;;;112546;210;41936;-38
2023/10/29 03:58:27;;;;;;;;;;;;;;;;;;112536;210;38683;-40
2023/10/29 04:01:01;;;;;;;;;;;;;;;;;;112560;210;39851;-39
2023/10/29 04:03:35;;;;;;;;;;;;;;;;;;112454;210;44008;-39
2023/10/29 04:06:12;;;;;;;;;;;;;;;;;;112485;210;41770;-39
2023/10/29 04:08:45;;;;;;;;;;;;;;;;;;112504;210;38736;-39
2023/10/29 04:11:20;;;;;;;;;;;;;;;;;;112454;210;39712;-38
2023/10/29 04:13:53;;;;;;;;;;;;;;;;;;112395;210;42930;-39
2023/10/29 04:16:29;;;;;;;;;;;;;;;;;;112452;210;41663;-38
2023/10/29 04:19:05;;;;;;;;;;;;;;;;;;112478;210;38791;-39
2023/10/29 04:21:40;;;;;;;;;;;;;;;;;;112380;210;39605;-39
2023/10/29 04:24:15;;;;;;;;;;;;;;;;;;112476;210;42777;-39
2023/10/29 04:26:52;;;;;;;;;;;;;;;;;;112446;210;41850;-39
2023/10/29 04:29:29;;;;;;;;;;;;;;;;;;112436;210;40035;-39
2023/10/29 04:32:04;;;;;;;;;;;;;;;;;;112432;210;40003;-38
2023/10/29 04:34:36;;;;;;;;;;;;;;;;;;112405;210;42827;-39
2023/10/29 04:37:12;;;;;;;;;;;;;;;;;;112496;210;41943;-39
2023/10/29 04:39:49;;;;;;;;;;;;;;;;;;112403;210;38860;-38
2023/10/29 04:42:24;;;;;;;;;;;;;;;;;;112400;210;39872;-38
2023/10/29 04:44:58;;;;;;;;;;;;;;;;;;112403;210;43495;-39
2023/10/29 04:47:34;;;;;;;;;;;;;;;;;;112365;210;41704;-38
2023/10/29 04:50:15;;;;;;;;;;;;;;;;;;112487;210;40185;-38
2023/10/29 04:52:49;;;;;;;;;;;;;;;;;;112448;210;39955;-39
2023/10/29 04:55:27;;;;;;;;;;;;;;;;;;112452;210;44193;-39
2023/10/29 04:58:00;;;;;;;;;;;;;;;;;;112272;210;175683;-39
2023/10/29 05:00:32;;;;;;;;;;;;;;;;;;112494;210;38933;-39
2023/10/29 05:03:07;;;;;;;;;;;;;;;;;;112407;210;39636;-39
2023/10/29 05:05:41;;;;;;;;;;;;;;;;;;112439;210;44082;-38
2023/10/29 05:08:16;;;;;;;;;;;;;;;;;;112401;210;41641;-39
2023/10/29 05:10:51;;;;;;;;;;;;;;;;;;112455;210;40119;-39
2023/10/29 05:13:26;;;;;;;;;;;;;;;;;;112388;210;39830;-39
2023/10/29 05:16:01;;;;;;;;;;;;;;;;;;112394;210;43124;-38
2023/10/29 05:18:39;;;;;;;;;;;;;;;;;;112417;210;43077;-39
2023/10/29 05:21:11;;;;;;;;;;;;;;;;;;112482;210;38948;-39
2023/10/29 05:23:44;;;;;;;;;;;;;;;;;;112458;210;39558;-39
2023/10/29 05:26:20;;;;;;;;;;;;;;;;;;112447;210;42838;-39
2023/10/29 05:28:57;;;;;;;;;;;;;;;;;;112442;210;42027;-39
2023/10/29 05:31:30;;;;;;;;;;;;;;;;;;112444;210;38691;-39
2023/10/29 05:34:07;;;;;;;;;;;;;;;;;;112435;210;45295;-39
2023/10/29 05:36:42;;;;;;;;;;;;;;;;;;112451;210;42812;-39
2023/10/29 05:39:19;;;;;;;;;;;;;;;;;;112491;210;41984;-38
2023/10/29 05:41:58;;;;;;;;;;;;;;;;;;112446;210;39009;-39
2023/10/29 05:44:32;;;;;;;;;;;;;;;;;;112461;210;45844;-39
2023/10/29 05:47:13;;;;;;;;;;;;;;;;;;112464;210;43051;-39
2023/10/29 05:49:49;;;;;;;;;;;;;;;;;;112451;210;41863;-39
2023/10/29 05:52:23;;;;;;;;;;;;;;;;;;112426;210;38727;-39
2023/10/29 05:54:55;;;;;;;;;;;;;;;;;;112496;210;39615;-38
2023/10/29 05:57:32;;;;;;;;;;;;;;;;;;112440;210;42812;-39
2023/10/29 06:00:09;;;;;;;;;;;;;;;;;;112481;210;41756;-39
2023/10/29 06:02:45;;;;;;;;;;;;;;;;;;112443;210;38684;-39
2023/10/29 06:05:20;;;;;;;;;;;;;;;;;;112425;210;42177;-39
2023/10/29 06:07:56;;;;;;;;;;;;;;;;;;112338;210;175677;-39
2023/10/29 06:10:29;;;;;;;;;;;;;;;;;;112462;210;41956;-39
2023/10/29 06:13:06;;;;;;;;;;;;;;;;;;112441;210;39050;-39
2023/10/29 06:15:40;;;;;;;;;;;;;;;;;;112421;210;39581;-39
2023/10/29 06:18:16;;;;;;;;;;;;;;;;;;112489;210;42595;-39
2023/10/29 06:20:49;;;;;;;;;;;;;;;;;;112448;210;41798;-39
2023/10/29 06:23:27;;;;;;;;;;;;;;;;;;112436;210;38864;-39
2023/10/29 06:26:06;;;;;;;;;;;;;;;;;;112490;210;39747;-39
2023/10/29 06:28:45;;;;;;;;;;;;;;;;;;112449;210;42834;-40
2023/10/29 06:31:17;;;;;;;;;;;;;;;;;;112454;210;42224;-39
2023/10/29 06:33:51;;;;;;;;;;;;;;;;;;112412;210;38784;-39
2023/10/29 06:36:25;;;;;;;;;;;;;;;;;;112421;210;39599;-39
2023/10/29 06:38:59;;;;;;;;;;;;;;;;;;112402;210;44213;-39
2023/10/29 06:41:35;;;;;;;;;;;;;;;;;;112456;210;42805;-38
2023/10/29 06:44:09;;;;;;;;;;;;;;;;;;112439;210;39076;-38
2023/10/29 06:46:44;;;;;;;;;;;;;;;;;;112468;210;39387;-39
2023/10/29 06:49:18;;;;;;;;;;;;;;;;;;112403;210;42831;-39
2023/10/29 06:51:51;;;;;;;;;;;;;;;;;;112426;210;41729;-39
2023/10/29 06:54:27;;;;;;;;;;;;;;;;;;112428;210;38496;-39
2023/10/29 06:57:00;;;;;;;;;;;;;;;;;;112490;210;39603;-39
2023/10/29 06:59:34;;;;;;;;;;;;;;;;;;112441;210;44290;-39
2023/10/29 07:02:10;;;;;;;;;;;;;;;;;;112427;210;41913;-39
2023/10/29 07:04:45;;;;;;;;;;;;;;;;;;112411;210;38446;-39
2023/10/29 07:07:25;;;;;;;;;;;;;;;;;;112416;210;39853;-39
2023/10/29 07:10:03;;;;;;;;;;;;;;;;;;112421;210;42945;-39
2023/10/29 07:12:44;;;;;;;;;;;;;;;;;;112491;210;41718;-39
2023/10/29 07:15:18;;;;;;;;;;;;;;;;;;112423;210;38495;-39
2023/10/29 07:17:56;;;;;;;;;;;;;;;;;;112427;210;40896;-39
2023/10/29 07:20:32;;;;;;;;;;;;;;;;;;112441;210;42987;-39
2023/10/29 07:23:06;;;;;;;;;;;;;;;;;;112396;210;41662;-39
2023/10/29 07:25:39;;;;;;;;;;;;;;;;;;112359;210;40311;-39
2023/10/29 07:28:13;;;;;;;;;;;;;;;;;;112439;210;39320;-39
2023/10/29 07:30:52;;;;;;;;;;;;;;;;;;112454;210;43950;-39
2023/10/29 07:33:25;;;;;;;;;;;;;;;;;;112452;210;42967;-39
2023/10/29 07:36:12;;;;;;;;;;;;;;;;;;112395;210;39877;-39
2023/10/29 07:38:49;;;;;;;;;;;;;;;;;;112460;210;40001;-39
2023/10/29 07:41:22;;;;;;;;;;;;;;;;;;112445;210;42820;-39
2023/10/29 07:43:56;;;;;;;;;;;;;;;;;;112458;210;43097;-40
2023/10/29 07:46:31;;;;;;;;;;;;;;;;;;112418;210;38722;-40
2023/10/29 07:49:09;;;;;;;;;;;;;;;;;;112446;210;39818;-39
2023/10/29 07:51:42;;;;;;;;;;;;;;;;;;112395;210;43016;-39
2023/10/29 07:54:17;;;;;;;;;;;;;;;;;;112406;210;43340;-39
2023/10/29 07:56:54;;;;;;;;;;;;;;;;;;112403;210;38758;-39
2023/10/29 07:59:33;;;;;;;;;;;;;;;;;;112507;210;39782;-39
2023/10/29 08:02:11;;;;;;;;;;;;;;;;;;112475;210;43053;-39
2023/10/29 08:04:45;;;;;;;;;;;;;;;;;;112382;210;41836;-39
2023/10/29 08:07:20;;;;;;;;;;;;;;;;;;112491;210;38985;-39
2023/10/29 08:09:53;;;;;;;;;;;;;;;;;;112415;210;40188;-39
2023/10/29 08:12:28;;;;;;;;;;;;;;;;;;112467;210;43092;-39
2023/10/29 08:15:05;;;;;;;;;;;;;;;;;;112458;210;41606;-39
2023/10/29 08:17:39;;;;;;;;;;;;;;;;;;112363;210;47065;-39
2023/10/29 08:20:16;;;;;;;;;;;;;;;;;;112427;210;39789;-39
2023/10/29 08:22:51;;;;;;;;;;;;;;;;;;112421;210;42563;-39
2023/10/29 08:25:29;;;;;;;;;;;;;;;;;;112441;210;41769;-38
2023/10/29 08:28:04;;;;;;;;;;;;;;;;;;112455;210;46056;-38
2023/10/29 08:30:40;;;;;;;;;;;;;;;;;;112432;210;40967;-39
2023/10/29 08:33:17;;;;;;;;;;;;;;;;;;112465;210;42962;-38
2023/10/29 08:35:52;;;;;;;;;;;;;;;;;;112277;211;41831;-38
2023/10/29 08:38:32;;;;;;;;;;;;;;;;;;112469;210;38776;-39
2023/10/29 08:41:20;;;;;;;;;;;;;;;;;;112422;211;39796;-39
2023/10/29 08:43:57;;;;;;;;;;;;;;;;;;112419;211;42787;-39
2023/10/29 08:46:34;;;;;;;;;;;;;;;;;;112328;211;41608;-39
2023/10/29 08:49:08;;;;;;;;;;;;;;;;;;112401;211;38729;-39
2023/10/29 08:51:44;;;;;;;;;;;;;;;;;;112455;211;39844;-39
2023/10/29 08:54:17;;;;;;;;;;;;;;;;;;112412;211;42805;-41
2023/10/29 08:56:49;;;;;;;;;;;;;;;;;;112401;211;41741;-41
2023/10/29 08:59:24;;;;;;;;;;;;;;;;;;112452;211;38705;-41
2023/10/29 09:01:59;;;;;;;;;;;;;;;;;;112472;211;39783;-41
2023/10/29 09:04:43;;;;;;;;;;;;;;;;;;112433;211;42984;-41
2023/10/29 09:07:23;;;;;;;;;;;;;;;;;;112368;211;41607;-43
2023/10/29 09:09:58;;;;;;;;;;;;;;;;;;112412;211;38735;-41
2023/10/29 09:12:38;;;;;;;;;;;;;;;;;;112408;211;39589;-41
2023/10/29 09:15:15;;;;;;;;;;;;;;;;;;112389;211;42764;-41
2023/10/29 09:17:51;;;;;;;;;;;;;;;;;;112346;211;42903;-42
2023/10/29 09:20:25;;;;;;;;;;;;;;;;;;112430;211;38757;-41
2023/10/29 09:23:04;;;;;;;;;;;;;;;;;;112419;211;39947;-41
2023/10/29 09:25:38;;;;;;;;;;;;;;;;;;112449;211;42911;-41
2023/10/29 09:28:14;;;;;;;;;;;;;;;;;;112380;211;41754;-41
2023/10/29 09:30:50;;;;;;;;;;;;;;;;;;112415;211;38743;-41
2023/10/29 09:33:27;;;;;;;;;;;;;;;;;;112410;211;39623;-41
2023/10/29 09:36:03;;;;;;;;;;;;;;;;;;112415;211;42984;-41
2023/10/29 09:38:36;;;;;;;;;;;;;;;;;;112315;211;175600;-42
2023/10/29 09:41:12;;;;;;;;;;;;;;;;;;112423;211;38764;-41
2023/10/29 09:43:51;;;;;;;;;;;;;;;;;;112424;211;39776;-41
2023/10/29 09:46:26;;;;;;;;;;;;;;;;;;112492;211;42800;-42
2023/10/29 09:49:03;;;;;;;;;;;;;;;;;;112367;211;41637;-41
2023/10/29 09:51:37;;;;;;;;;;;;;;;;;;112470;211;38857;-42
2023/10/29 09:54:12;;;;;;;;;;;;;;;;;;112456;211;39796;-43
2023/10/29 09:56:50;;;;;;;;;;;;;;;;;;112440;211;42998;-41
2023/10/29 09:59:29;;;;;;;;;;;;;;;;;;112467;211;42139;-41
2023/10/29 10:02:06;;;;;;;;;;;;;;;;;;112481;211;38728;-42
2023/10/29 10:04:43;;;;;;;;;;;;;;;;;;112434;211;39775;-42
2023/10/29 10:07:20;;;;;;;;;;;;;;;;;;112422;211;43400;-41
2023/10/29 10:10:00;;;;;;;;;;;;;;;;;;112384;211;47269;-41
2023/10/29 10:12:49;;;;;;;;;;;;;;;;;;112449;210;39827;-43
2023/10/29 10:15:30;;;;;;;;;;;;;;;;;;112481;211;39800;-41
2023/10/29 10:18:07;;;;;;;;;;;;;;;;;;112430;210;42785;-41
2023/10/29 10:20:43;;;;;;;;;;;;;;;;;;112485;211;41621;-40
2023/10/29 10:23:18;;;;;;;;;;;;;;;;;;112484;211;39327;-40
2023/10/29 10:26:00;;;;;;;;;;;;;;;;;;112411;211;39626;-40
2023/10/29 10:28:34;;;;;;;;;;;;;;;;;;112425;211;43303;-40
2023/10/29 10:31:15;;;;;;;;;;;;;;;;;;112349;211;175572;-40
2023/10/29 10:34:11;;;;;;;;;;;;;;;;;;112468;211;38728;-40
2023/10/29 10:36:50;;;;;;;;;;;;;;;;;;112502;211;39585;-40
2023/10/29 10:39:25;;;;;;;;;;;;;;;;;;112330;210;175593;-40
2023/10/29 10:42:00;;;;;;;;;;;;;;;;;;112465;210;41621;-40
2023/10/29 10:44:36;;;;;;;;;;;;;;;;;;112466;210;38784;-40
2023/10/29 10:47:11;;;;;;;;;;;;;;;;;;112463;210;39473;-40
2023/10/29 10:49:44;;;;;;;;;;;;;;;;;;112418;210;42806;-41
2023/10/29 10:52:20;;;;;;;;;;;;;;;;;;112434;210;43304;-40
2023/10/29 10:54:52;;;;;;;;;;;;;;;;;;112047;210;467335;-40
2023/10/29 10:57:25;;;;;;;;;;;;;;;;;;112452;210;39619;-40
2023/10/29 11:00:05;;;;;;;;;;;;;;;;;;112423;210;42941;-40
2023/10/29 11:02:40;;;;;;;;;;;;;;;;;;112388;210;42837;-40
2023/10/29 11:05:16;;;;;;;;;;;;;;;;;;112498;210;38920;-39
2023/10/29 11:07:52;;;;;;;;;;;;;;;;;;112477;210;39435;-41
2023/10/29 11:10:31;;;;;;;;;;;;;;;;;;112464;210;42872;-40
2023/10/29 11:13:21;;;;;;;;;;;;;;;;;;112434;210;42195;-40
2023/10/29 11:15:55;;;;;;;;;;;;;;;;;;112543;210;38510;-40
2023/10/29 11:18:35;;;;;;;;;;;;;;;;;;112453;210;39526;-40
2023/10/29 11:21:35;;;;;;;;;;;;;;;;;;112431;210;42977;-40
2023/10/29 11:24:27;;;;;;;;;;;;;;;;;;112545;210;41736;-40
2023/10/29 11:27:30;;;;;;;;;;;;;;;;;;112519;210;38828;-40
2023/10/29 11:30:20;;;;;;;;;;;;;;;;;;112431;210;40838;-40
2023/10/29 11:33:22;;;;;;;;;;;;;;;;;;112437;210;43887;-41
2023/10/29 11:36:28;;;;;;;;;;;;;;;;;;112497;210;41681;-40
2023/10/29 11:39:28;;;;;;;;;;;;;;;;;;112419;210;38471;-40
2023/10/29 11:42:28;;;;;;;;;;;;;;;;;;111754;210;917060;-40
2023/10/29 11:45:29;;;;;;;;;;;;;;;;;;112476;210;42621;-40
2023/10/29 11:48:21;;;;;;;;;;;;;;;;;;112433;210;41768;-41
2023/10/29 11:51:32;;;;;;;;;;;;;;;;;;112399;210;39243;-40
2023/10/29 11:54:08;;;;;;;;;;;;;;;;;;112518;210;39765;-40
2023/10/29 11:56:46;;;;;;;;;;;;;;;;;;112453;210;42688;-40
2023/10/29 11:59:22;;;;;;;;;;;;;;;;;;112443;210;42142;-40
2023/10/29 12:01:56;;;;;;;;;;;;;;;;;;112303;210;38553;-40
2023/10/29 12:04:34;;;;;;;;;;;;;;;;;;112605;210;39695;-40
2023/10/29 12:07:07;;;;;;;;;;;;;;;;;;112650;210;42906;-40
2023/10/29 12:09:40;;;;;;;;;;;;;;;;;;112703;210;41813;-40
2023/10/29 12:12:19;;;;;;;;;;;;;;;;;;112614;210;38436;-40
2023/10/29 12:14:54;;;;;;;;;;;;;;;;;;112603;210;39904;-39
2023/10/29 12:17:30;;;;;;;;;;;;;;;;;;112652;210;43291;-40
2023/10/29 12:20:11;;;;;;;;;;;;;;;;;;112655;210;41605;-40
2023/10/29 12:22:44;;;;;;;;;;;;;;;;;;112589;210;38832;-39
2023/10/29 12:25:21;;;;;;;;;;;;;;;;;;112421;210;175679;-39
2023/10/29 12:27:56;;;;;;;;;;;;;;;;;;112606;210;42865;-40
2023/10/29 12:30:43;;;;;;;;;;;;;;;;;;112587;210;41605;-40
2023/10/29 12:33:21;;;;;;;;;;;;;;;;;;112701;210;44699;-40
2023/10/29 12:36:05;;;;;;;;;;;;;;;;;;112656;210;39608;-40
2023/10/29 12:38:42;;;;;;;;;;;;;;;;;;112561;210;42792;-40
2023/10/29 12:41:27;;;;;;;;;;;;;;;;;;112564;210;41815;-40
2023/10/29 12:43:59;;;;;;;;;;;;;;;;;;112563;210;40089;-40
2023/10/29 12:46:38;;;;;;;;;;;;;;;;;;112603;210;39760;-42
2023/10/29 12:49:12;;;;;;;;;;;;;;;;;;112565;210;42526;-40
2023/10/29 12:51:48;;;;;;;;;;;;;;;;;;112562;210;41910;-42
2023/10/29 12:54:24;;;;;;;;;;;;;;;;;;112583;210;39888;-40
2023/10/29 12:56:57;;;;;;;;;;;;;;;;;;112631;210;39772;-40
2023/10/29 12:59:36;;;;;;;;;;;;;;;;;;112460;210;175593;-40
2023/10/29 13:02:22;;;;;;;;;;;;;;;;;;112474;210;41822;-40
2023/10/29 13:04:58;;;;;;;;;;;;;;;;;;112488;210;39038;-40
2023/10/29 13:07:32;;;;;;;;;;;;;;;;;;112495;210;39760;-40
2023/10/29 13:10:07;;;;;;;;;;;;;;;;;;112505;210;42666;-40
2023/10/29 13:12:45;;;;;;;;;;;;;;;;;;112461;210;41422;-40
2023/10/29 13:15:23;;;;;;;;;;;;;;;;;;112497;210;38701;-40
2023/10/29 13:17:55;;;;;;;;;;;;;;;;;;112478;210;39770;-39
2023/10/29 13:20:33;;;;;;;;;;;;;;;;;;112463;210;44095;-40
2023/10/29 13:23:07;;;;;;;;;;;;;;;;;;112403;210;41769;-40
2023/10/29 13:25:39;;;;;;;;;;;;;;;;;;112481;210;41092;-41
2023/10/29 13:28:14;;;;;;;;;;;;;;;;;;112517;210;40107;-40
2023/10/29 13:30:58;;;;;;;;;;;;;;;;;;112486;210;42924;-40
2023/10/29 13:33:32;;;;;;;;;;;;;;;;;;112455;210;42080;-39
2023/10/29 13:36:12;;;;;;;;;;;;;;;;;;112471;210;38707;-40
2023/10/29 13:38:45;;;;;;;;;;;;;;;;;;112467;210;39752;-41
2023/10/29 13:41:22;;;;;;;;;;;;;;;;;;112443;210;43141;-40
2023/10/29 13:43:57;;;;;;;;;;;;;;;;;;112374;210;41366;-40
2023/10/29 13:46:31;;;;;;;;;;;;;;;;;;112469;210;38761;-40
2023/10/29 13:49:06;;;;;;;;;;;;;;;;;;112483;210;39573;-39
2023/10/29 13:51:44;;;;;;;;;;;;;;;;;;112442;210;44220;-39
2023/10/29 13:54:19;;;;;;;;;;;;;;;;;;112425;210;41439;-39
2023/10/29 13:56:53;;;;;;;;;;;;;;;;;;112464;210;38991;-39
2023/10/29 13:59:30;;;;;;;;;;;;;;;;;;112420;210;39755;-40
2023/10/29 14:02:04;;;;;;;;;;;;;;;;;;112457;210;42703;-42
2023/10/29 14:04:38;;;;;;;;;;;;;;;;;;112474;210;42375;-41
2023/10/29 14:07:13;;;;;;;;;;;;;;;;;;112521;210;38486;-40
2023/10/29 14:09:45;;;;;;;;;;;;;;;;;;112511;210;39527;-40
2023/10/29 14:12:22;;;;;;;;;;;;;;;;;;112500;210;42568;-39
2023/10/29 14:14:56;;;;;;;;;;;;;;;;;;112453;210;43134;-40
2023/10/29 14:17:30;;;;;;;;;;;;;;;;;;112519;210;39013;-41
2023/10/29 14:20:03;;;;;;;;;;;;;;;;;;112554;210;39589;-40
2023/10/29 14:22:41;;;;;;;;;;;;;;;;;;112585;210;42802;-40
2023/10/29 14:25:18;;;;;;;;;;;;;;;;;;112460;210;42137;-39
2023/10/29 14:27:53;;;;;;;;;;;;;;;;;;112523;210;38694;-40
2023/10/29 14:30:33;;;;;;;;;;;;;;;;;;112474;210;39777;-40
2023/10/29 14:33:06;;;;;;;;;;;;;;;;;;112463;210;42770;-40
2023/10/29 14:35:38;;;;;;;;;;;;;;;;;;112395;210;41570;-40
2023/10/29 14:38:15;;;;;;;;;;;;;;;;;;112466;210;39040;-40
2023/10/29 14:40:53;;;;;;;;;;;;;;;;;;112455;210;39790;-39
2023/10/29 14:43:25;;;;;;;;;;;;;;;;;;112450;210;42803;-40
2023/10/29 14:46:05;;;;;;;;;;;;;;;;;;112450;210;48679;-40
2023/10/29 14:48:42;;;;;;;;;;;;;;;;;;112431;210;38506;-40
2023/10/29 14:51:15;;;;;;;;;;;;;;;;;;112362;210;176531;-39
2023/10/29 14:53:52;;;;;;;;;;;;;;;;;;112466;210;42918;-39
2023/10/29 14:56:31;;;;;;;;;;;;;;;;;;112386;210;47764;-39
2023/10/29 14:59:10;;;;;;;;;;;;;;;;;;112468;210;38461;-39
2023/10/29 15:01:47;;;;;;;;;;;;;;;;;;112465;210;39575;-39
2023/10/29 15:04:24;;;;;;;;;;;;;;;;;;112422;210;42811;-39
2023/10/29 15:07:01;;;;;;;;;;;;;;;;;;112449;210;47970;-39
2023/10/29 15:09:35;;;;;;;;;;;;;;;;;;112436;210;38730;-39
2023/10/29 15:12:17;;;;;;;;;;;;;;;;;;112470;210;39572;-39
2023/10/29 15:14:53;;;;;;;;;;;;;;;;;;112420;210;42944;-39
2023/10/29 15:17:30;;;;;;;;;;;;;;;;;;112480;210;41593;-39
2023/10/29 15:20:08;;;;;;;;;;;;;;;;;;112493;210;38713;-39
2023/10/29 15:22:40;;;;;;;;;;;;;;;;;;112593;210;39393;-39
2023/10/29 15:25:18;;;;;;;;;;;;;;;;;;112493;210;43131;-40
2023/10/29 15:27:51;;;;;;;;;;;;;;;;;;112556;210;41669;-39
2023/10/29 15:30:30;;;;;;;;;;;;;;;;;;111871;210;892142;-40
2023/10/29 15:33:08;;;;;;;;;;;;;;;;;;112589;210;39718;-39
2023/10/29 15:35:42;;;;;;;;;;;;;;;;;;112514;210;43440;-40
2023/10/29 15:38:15;;;;;;;;;;;;;;;;;;112535;210;41726;-40
2023/10/29 15:40:49;;;;;;;;;;;;;;;;;;112585;210;38768;-39
2023/10/29 15:43:21;;;;;;;;;;;;;;;;;;112537;210;39580;-40
2023/10/29 15:45:54;;;;;;;;;;;;;;;;;;112523;210;42725;-40
2023/10/29 15:48:29;;;;;;;;;;;;;;;;;;112545;210;41910;-40
2023/10/29 15:51:03;;;;;;;;;;;;;;;;;;112454;210;175612;-40
2023/10/29 15:53:39;;;;;;;;;;;;;;;;;;112584;210;39712;-41
2023/10/29 15:56:20;;;;;;;;;;;;;;;;;;112379;210;42928;-37
2023/10/29 15:58:59;;;;;;;;;;;;;;;;;;112652;210;41751;-41
2023/10/29 16:01:32;;;;;;;;;;;;;;;;;;112588;210;38490;-42
2023/10/29 16:04:07;;;;;;;;;;;;;;;;;;112544;210;175640;-41
2023/10/29 16:06:47;;;;;;;;;;;;;;;;;;112531;210;45251;-39
2023/10/29 16:09:29;;;;;;;;;;;;;;;;;;112449;210;41672;-39
2023/10/29 16:12:07;;;;;;;;;;;;;;;;;;112592;210;39886;-38
2023/10/29 16:14:44;;;;;;;;;;;;;;;;;;112565;210;39461;-40
2023/10/29 16:17:19;;;;;;;;;;;;;;;;;;112581;210;42792;-40
2023/10/29 16:19:55;;;;;;;;;;;;;;;;;;112497;210;175554;-39
2023/10/29 16:22:29;;;;;;;;;;;;;;;;;;112697;210;38548;-39
2023/10/29 16:25:03;;;;;;;;;;;;;;;;;;112640;210;39638;-41
2023/10/29 16:27:36;;;;;;;;;;;;;;;;;;112502;210;43278;-38
2023/10/29 16:30:11;;;;;;;;;;;;;;;;;;112573;210;41746;-38
2023/10/29 16:32:43;;;;;;;;;;;;;;;;;;112488;210;38529;-40
2023/10/29 16:35:15;;;;;;;;;;;;;;;;;;112401;210;40700;-43
2023/10/29 16:37:50;;;;;;;;;;;;;;;;;;112395;210;42940;-41
2023/10/29 16:40:23;;;;;;;;;;;;;;;;;;112492;210;43243;-41
2023/10/29 16:42:55;;;;;;;;;;;;;;;;;;112477;210;40162;-41
2023/10/29 16:45:34;;;;;;;;;;;;;;;;;;112523;210;41010;-43
2023/10/29 16:48:08;;;;;;;;;;;;;;;;;;112214;210;196133;-39
2023/10/29 16:50:41;;;;;;;;;;;;;;;;;;112538;210;42907;-39
2023/10/29 16:53:30;;;;;;;;;;;;;;;;;;112461;210;38706;-40
2023/10/29 16:56:10;;;;;;;;;;;;;;;;;;112530;210;40590;-40
2023/10/29 16:58:43;;;;;;;;;;;;;;;;;;112489;210;42797;-40
2023/10/29 17:01:18;;;;;;;;;;;;;;;;;;112570;210;43055;-40
2023/10/29 17:03:52;;;;;;;;;;;;;;;;;;112443;210;38900;-41
2023/10/29 17:06:25;;;;;;;;;;;;;;;;;;112542;210;39704;-40
2023/10/29 17:08:59;;;;;;;;;;;;;;;;;;112462;210;44430;-40
2023/10/29 17:11:33;;;;;;;;;;;;;;;;;;112515;210;42881;-40
2023/10/29 17:14:07;;;;;;;;;;;;;;;;;;112563;210;39965;-40
2023/10/29 17:16:43;;;;;;;;;;;;;;;;;;112535;210;39907;-40
2023/10/29 17:19:15;;;;;;;;;;;;;;;;;;112482;210;44156;-40
2023/10/29 17:21:48;;;;;;;;;;;;;;;;;;112528;210;41611;-40
2023/10/29 17:24:23;;;;;;;;;;;;;;;;;;112507;210;39237;-39
2023/10/29 17:26:59;;;;;;;;;;;;;;;;;;112575;210;39889;-40
2023/10/29 17:29:32;;;;;;;;;;;;;;;;;;112456;210;42792;-40
2023/10/29 17:32:10;;;;;;;;;;;;;;;;;;112591;210;41601;-40
2023/10/29 17:34:44;;;;;;;;;;;;;;;;;;112586;210;38891;-41
2023/10/29 17:37:17;;;;;;;;;;;;;;;;;;112576;210;39568;-40
2023/10/29 17:39:50;;;;;;;;;;;;;;;;;;112561;210;48110;-40
2023/10/29 17:42:29;;;;;;;;;;;;;;;;;;112563;210;41759;-40
2023/10/29 17:45:07;;;;;;;;;;;;;;;;;;112525;210;39032;-40
2023/10/29 17:47:40;;;;;;;;;;;;;;;;;;112585;210;40116;-40